Averill, Minnesota
Current Conditions -  °F | °C
As of 9:31 PM on Monday 22 Dec 2014 (Local Time) from KJKJ Reporting Station
Light Rain Light Rain  
Wind Chill: 32°   Ceiling: 2400
Heat Index: 36°   Visibility: 7mi
Dew Point: 36°   Wind: 5mph
Humidity: 100%   Direction: 50°NE
Pressure: 29.67"   Gusts: NA
Location:  46.8905°N, 96.5417°W
Report Text: KJKJ 230331Z AUTO 05004KT 7SM -RA OVC024 02/02 A2967 RMK AO2 P0001
Loading
Personal Weather Stations






























Interactive Weather Map New forecast layout! Learn more

10-Day Weather Forecast

Advertisements
Track Severe Weather on mobile